createdAt,value
2023-02-19T00:00:50.390Z,23.38
2023-02-19T00:06:15.084Z,22.01
2023-02-19T00:11:22.859Z,21.78
2023-02-19T00:16:27.812Z,21.99
2023-02-19T00:21:33.084Z,20.13
2023-02-19T00:26:36.562Z,18.61
2023-02-19T00:31:40.464Z,19.76
2023-02-19T00:36:50.082Z,25.41
2023-02-19T00:41:55.836Z,27.31
2023-02-19T00:47:01.415Z,25.06
2023-02-19T00:52:11.283Z,20.22
2023-02-19T00:57:14.692Z,15.94
2023-02-19T01:02:20.630Z,14.35
2023-02-19T01:07:26.787Z,30.45
2023-02-19T01:12:31.354Z,20.93
2023-02-19T01:17:37.086Z,14.01
2023-02-19T01:22:41.949Z,6.79
2023-02-19T01:27:45.386Z,11.34
2023-02-19T01:32:48.748Z,20.01
2023-02-19T01:37:53.534Z,19.30
2023-02-19T01:42:57.256Z,18.93
2023-02-19T01:48:05.706Z,18.47
2023-02-19T01:53:16.233Z,18.06
2023-02-19T01:58:19.989Z,15.50
2023-02-19T02:03:26.092Z,13.54
2023-02-19T02:08:50.286Z,15.37
2023-02-19T02:13:58.923Z,16.99
2023-02-19T02:19:08.596Z,19.83
2023-02-19T02:24:32.887Z,24.94
2023-02-19T02:30:00.461Z,40.96
2023-02-19T02:35:11.930Z,24.40
2023-02-19T02:40:16.285Z,24.19
2023-02-19T02:45:38.052Z,27.32
2023-02-19T02:51:00.509Z,24.29
2023-02-19T02:56:07.840Z,25.11
2023-02-19T03:01:36.168Z,24.62
2023-02-19T03:06:46.294Z,23.83
2023-02-19T03:12:11.573Z,22.96
2023-02-19T03:17:40.815Z,20.95
2023-02-19T03:22:53.504Z,20.77
2023-02-19T03:28:00.502Z,18.10
2023-02-19T03:33:08.161Z,23.91
2023-02-19T03:38:18.834Z,24.44
2023-02-19T03:43:33.915Z,35.45
2023-02-19T03:48:41.301Z,22.57
2023-02-19T03:53:58.548Z,30.26
2023-02-19T03:59:11.391Z,21.65
2023-02-19T04:04:19.110Z,19.69
2023-02-19T04:09:26.801Z,16.08
2023-02-19T04:14:42.006Z,7.75
2023-02-19T04:19:50.062Z,16.89
2023-02-19T04:24:56.527Z,8.74
2023-02-19T04:29:59.838Z,7.05
2023-02-19T04:35:05.848Z,11.05
2023-02-19T04:40:11.411Z,9.15
2023-02-19T04:45:14.771Z,11.44
2023-02-19T04:50:18.609Z,10.25
2023-02-19T04:55:25.455Z,6.66
2023-02-19T05:00:28.818Z,5.10
2023-02-19T05:05:32.233Z,6.50
2023-02-19T05:10:37.019Z,6.23
2023-02-19T05:15:40.451Z,4.96
2023-02-19T05:20:45.972Z,6.08
2023-02-19T05:25:50.710Z,6.41
2023-02-19T05:30:54.331Z,8.10
2023-02-19T05:35:57.763Z,10.28
2023-02-19T05:41:12.606Z,11.36
2023-02-19T05:46:17.409Z,16.13
2023-02-19T05:51:22.209Z,7.52
2023-02-19T05:56:31.962Z,10.90
2023-02-19T06:01:38.483Z,11.82
2023-02-19T06:06:44.633Z,19.08
2023-02-19T06:11:51.488Z,21.83
2023-02-19T06:16:54.810Z,21.98
2023-02-19T06:21:58.299Z,28.34
2023-02-19T06:27:06.193Z,23.91
2023-02-19T06:32:09.666Z,20.85
2023-02-19T06:37:16.140Z,20.66
2023-02-19T06:42:20.867Z,28.50
2023-02-19T06:47:25.474Z,23.95
2023-02-19T06:52:31.300Z,19.87
2023-02-19T06:57:38.209Z,19.16
2023-02-19T07:02:41.663Z,19.52
2023-02-19T07:07:46.789Z,22.03
2023-02-19T07:12:51.590Z,32.52
2023-02-19T07:17:57.257Z,24.53
2023-02-19T07:23:00.686Z,19.89
2023-02-19T07:28:05.946Z,18.53
2023-02-19T07:33:11.976Z,17.29
2023-02-19T07:38:16.599Z,20.01
2023-02-19T07:43:24.537Z,24.17
2023-02-19T07:48:29.247Z,23.26
2023-02-19T07:53:34.103Z,24.78
2023-02-19T07:58:39.031Z,26.91
2023-02-19T08:03:42.865Z,23.67
2023-02-19T08:08:46.360Z,19.97
2023-02-19T08:13:54.204Z,19.37
2023-02-19T08:18:57.648Z,22.54
2023-02-19T08:24:03.232Z,22.75
2023-02-19T08:29:08.412Z,24.30
2023-02-19T08:34:11.839Z,22.05
2023-02-19T08:39:21.048Z,33.34
2023-02-19T08:44:26.392Z,23.04
2023-02-19T08:49:29.848Z,19.60
2023-02-19T08:54:33.258Z,16.62
2023-02-19T08:59:38.062Z,17.82
2023-02-19T09:04:41.415Z,17.42
2023-02-19T09:09:45.022Z,19.28
2023-02-19T09:14:52.037Z,23.34
2023-02-19T09:19:55.473Z,21.29
2023-02-19T09:24:58.846Z,21.44
2023-02-19T09:30:03.721Z,20.37
2023-02-19T09:35:07.633Z,18.86
2023-02-19T09:40:11.570Z,18.58
2023-02-19T09:45:20.996Z,19.49
2023-02-19T09:50:29.892Z,20.53
2023-02-19T09:55:37.975Z,18.78
2023-02-19T10:00:42.795Z,26.16
2023-02-19T10:05:49.077Z,23.87
2023-02-19T10:10:54.449Z,19.72
2023-02-19T10:16:01.841Z,20.85
2023-02-19T10:21:06.427Z,20.41
2023-02-19T10:26:09.860Z,19.44
2023-02-19T10:31:20.838Z,17.48
2023-02-19T10:36:31.901Z,22.80
2023-02-19T10:41:44.262Z,25.86
2023-02-19T10:46:52.194Z,25.48
2023-02-19T10:52:01.637Z,31.42
2023-02-19T10:57:25.744Z,32.36
2023-02-19T11:02:33.231Z,20.97
2023-02-19T11:07:38.149Z,17.20
2023-02-19T11:12:41.613Z,14.67
2023-02-19T11:17:55.410Z,23.25
2023-02-19T11:23:02.619Z,15.78
2023-02-19T11:28:08.325Z,13.09
2023-02-19T11:33:22.257Z,14.04
2023-02-19T11:38:28.013Z,28.94
2023-02-19T11:43:50.964Z,26.55
2023-02-19T11:49:01.561Z,27.28
2023-02-19T11:54:13.138Z,31.98
2023-02-19T11:59:24.612Z,39.27
2023-02-19T12:04:44.188Z,24.60
2023-02-19T12:10:00.202Z,30.39
2023-02-19T12:15:20.174Z,20.82
2023-02-19T12:20:31.926Z,21.63
2023-02-19T12:25:50.300Z,17.89
2023-02-19T12:31:08.633Z,16.10
2023-02-19T12:36:22.143Z,15.88
2023-02-19T12:41:37.148Z,15.86
2023-02-19T12:46:47.522Z,15.37
2023-02-19T12:51:57.578Z,20.11
2023-02-19T12:57:03.964Z,13.23
2023-02-19T13:02:17.189Z,19.38
2023-02-19T13:07:26.995Z,29.32
2023-02-19T13:12:34.646Z,23.75
2023-02-19T13:17:42.626Z,29.71
2023-02-19T13:23:11.895Z,29.35
2023-02-19T13:28:26.974Z,27.83
2023-02-19T13:33:42.215Z,28.43
2023-02-19T13:38:50.113Z,28.89
2023-02-19T13:43:59.594Z,28.38
2023-02-19T13:49:21.960Z,28.08
2023-02-19T13:54:28.656Z,23.19
2023-02-19T13:59:37.071Z,28.14
2023-02-19T14:04:47.429Z,37.59
2023-02-19T14:09:55.294Z,28.27
2023-02-19T14:15:15.899Z,21.73
2023-02-19T14:20:40.339Z,21.16
2023-02-19T14:25:50.378Z,28.22
2023-02-19T14:30:55.833Z,31.52
2023-02-19T14:36:07.429Z,27.33
2023-02-19T14:41:14.918Z,28.15
2023-02-19T14:46:25.372Z,25.32
2023-02-19T14:51:33.591Z,28.63
2023-02-19T14:56:38.522Z,29.21
2023-02-19T15:01:42.003Z,24.01
2023-02-19T15:06:47.829Z,20.86
2023-02-19T15:11:54.323Z,24.28
2023-02-19T15:17:00.573Z,27.77
2023-02-19T15:22:05.320Z,26.34
2023-02-19T15:27:18.753Z,23.81
2023-02-19T15:32:24.045Z,24.59
2023-02-19T15:37:29.920Z,25.13
2023-02-19T15:42:37.237Z,26.35
2023-02-19T15:47:46.920Z,23.57
2023-02-19T15:52:59.921Z,19.84
2023-02-19T15:58:13.443Z,24.39
2023-02-19T16:03:19.172Z,26.58
2023-02-19T16:08:30.933Z,24.36
2023-02-19T16:13:38.166Z,26.02
2023-02-19T16:18:45.819Z,27.01
2023-02-19T16:23:56.981Z,32.05
2023-02-19T16:29:01.846Z,30.79
2023-02-19T16:34:17.632Z,23.69
2023-02-19T16:39:22.432Z,35.59
2023-02-19T16:44:36.644Z,22.33
2023-02-19T16:49:42.556Z,23.06
2023-02-19T16:54:46.083Z,23.96
2023-02-19T16:59:51.013Z,29.86
2023-02-19T17:04:55.897Z,27.07
2023-02-19T17:09:59.496Z,24.04
2023-02-19T17:15:04.406Z,22.06
2023-02-19T17:20:20.442Z,26.20
2023-02-19T17:25:26.642Z,28.14
2023-02-19T17:30:33.202Z,25.98
2023-02-19T17:35:36.753Z,29.12
2023-02-19T17:40:40.347Z,22.44
2023-02-19T17:45:45.290Z,21.34
2023-02-19T17:50:52.369Z,22.16
2023-02-19T17:55:55.837Z,23.42
2023-02-19T18:01:00.713Z,18.33
2023-02-19T18:06:07.589Z,13.54
2023-02-19T18:11:11.298Z,10.70
2023-02-19T18:16:17.294Z,21.80
2023-02-19T18:21:20.828Z,17.81
2023-02-19T18:26:24.772Z,17.36
2023-02-19T18:31:34.072Z,16.89
2023-02-19T18:36:37.644Z,15.77
2023-02-19T18:41:41.313Z,17.06
2023-02-19T18:46:49.261Z,16.54
2023-02-19T18:51:52.834Z,17.02
2023-02-19T18:56:56.458Z,29.10
2023-02-19T19:02:01.382Z,31.52
2023-02-19T19:07:05.978Z,24.64
2023-02-19T19:12:11.997Z,28.23
2023-02-19T19:17:16.766Z,28.22
2023-02-19T19:22:22.862Z,30.16
2023-02-19T19:27:26.411Z,29.94
2023-02-19T19:32:31.722Z,28.49
2023-02-19T19:37:37.610Z,28.16
2023-02-19T19:42:42.520Z,28.58
2023-02-19T19:47:49.864Z,22.61
2023-02-19T19:52:53.472Z,25.80
2023-02-19T19:58:00.652Z,32.11
2023-02-19T20:03:10.626Z,27.50
2023-02-19T20:08:14.588Z,25.41
2023-02-19T20:13:18.904Z,23.64
2023-02-19T20:18:26.704Z,21.81
2023-02-19T20:23:30.391Z,21.19
2023-02-19T20:28:33.996Z,24.63
2023-02-19T20:33:38.872Z,22.94
2023-02-19T20:38:44.906Z,24.34
2023-02-19T20:43:53.102Z,22.93
2023-02-19T20:49:00.006Z,24.49
2023-02-19T20:54:03.519Z,28.97
2023-02-19T20:59:06.978Z,25.44
2023-02-19T21:04:12.306Z,25.97
2023-02-19T21:09:15.900Z,28.01
2023-02-19T21:14:21.687Z,25.64
2023-02-19T21:19:26.550Z,30.85
2023-02-19T21:24:33.179Z,32.88
2023-02-19T21:29:40.040Z,28.39
2023-02-19T21:34:44.878Z,44.36
2023-02-19T21:39:51.283Z,25.96
2023-02-19T21:44:54.941Z,23.64
2023-02-19T21:49:59.772Z,20.95
2023-02-19T21:55:03.252Z,16.76
2023-02-19T22:00:10.004Z,16.94
2023-02-19T22:05:17.562Z,19.85
2023-02-19T22:10:21.851Z,21.97
2023-02-19T22:15:27.774Z,20.48
2023-02-19T22:20:32.644Z,22.25
2023-02-19T22:25:36.172Z,21.30
2023-02-19T22:30:40.997Z,20.67
2023-02-19T22:35:45.912Z,27.87
2023-02-19T22:40:49.478Z,27.11
2023-02-19T22:45:53.483Z,25.57
2023-02-19T22:51:02.490Z,29.04
2023-02-19T22:56:06.164Z,30.80
2023-02-19T23:01:10.106Z,32.16
2023-02-19T23:06:18.671Z,39.07
2023-02-19T23:11:23.443Z,33.61
2023-02-19T23:16:27.125Z,31.86
2023-02-19T23:21:34.758Z,24.85
2023-02-19T23:26:43.491Z,23.71
2023-02-19T23:31:47.211Z,28.87
2023-02-19T23:36:52.387Z,33.11
2023-02-19T23:41:57.595Z,32.11
2023-02-19T23:47:03.260Z,28.78
2023-02-19T23:52:10.254Z,37.96
2023-02-19T23:57:16.690Z,31.22
